Kousin Maru No.15 — JL6689 — position and weather

sailwx.info

Track history (hours):
 
Tides and Currents Weather Stations Pressure Air Temp Water Temp Dewpoint Dewpoint Depression Visibility Wind Speed Wind Dir Waves Ship Positions

Kousin Maru No.15

Last reported at 2017-Nov-17 11:06 UTC. Time now 2017-Nov-18 10:31 UTC.
Position N 34°07' E 134°59'.

Length 63 m; draft 4.5 m.

Type: Tanker. MMSI: 431501727.

Date/timePositionNaut miles runAvg speedWind from/ knotsBaromVisibWave heightAir tempDewpointWater temp
2017-Nov-17 11:06N 34°07' E 134°59'112.9
2017-Nov-17 11:00N 34°09' E 134°59'1812.5
2017-Nov-17 09:34N 34°27' E 135°00'212.6
2017-Nov-17 09:26N 34°28' E 135°01'612.3
2017-Nov-17 08:58N 34°34' E 135°02'16 0.9
2017-Nov-16 15:47N 34°41' E 134°46'810.6
2017-Nov-16 15:03N 34°37' E 134°54'1 9.9
2017-Nov-16 14:59N 34°37' E 134°55'510.8
2017-Nov-16 14:30N 34°37' E 135°01'5 9.5
2017-Nov-16 13:58N 34°34' E 135°05'612.4
2017-Nov-16 13:30N 34°28' E 135°03'612.3
2017-Nov-16 13:00N 34°22' E 135°01'711.9
2017-Nov-16 12:24N 34°15' E 134°59'512.6
2017-Nov-16 12:00N 34°10' E 134°60'211 9.2
2017-Nov-15 13:07N 34°51' E 139°10'211.3
2017-Nov-15 12:59N 34°52' E 139°11'1410.6
2017-Nov-15 11:37N 35°00' E 139°26'511.0
2017-Nov-15 11:10N 35°02' E 139°32'211.3
2017-Nov-15 11:00N 35°03' E 139°34'611.7
2017-Nov-15 10:30N 35°07' E 139°40'612.6
2017-Nov-15 10:00N 35°11' E 139°45'612.2
2017-Nov-15 09:31N 35°17' E 139°45'612.6
2017-Nov-15 09:00N 35°23' E 139°42'713.0
2017-Nov-15 08:30N 35°28' E 139°48'6 0.3
2017-Nov-14 14:15N 35°29' E 139°56'2 8.3
2017-Nov-14 13:59N 35°29' E 139°53'613.2
2017-Nov-14 13:30N 35°25' E 139°47'713.2
2017-Nov-14 13:01N 35°18' E 139°44'612.1
2017-Nov-14 12:30N 35°13' E 139°47'612.5
2017-Nov-14 12:00N 35°07' E 139°44'612.4
2017-Nov-14 11:30N 35°02' E 139°39'713.3
2017-Nov-14 11:00N 34°59' E 139°32'  
2017-Nov-11 08:13N 34°52' E 139°11'1712.1
2017-Nov-11 06:48N 35°02' E 139°29'412.0
2017-Nov-11 06:30N 35°03' E 139°33'612.2
2017-Nov-11 06:00N 35°06' E 139°39'612.2
2017-Nov-11 05:30N 35°10' E 139°44'611.9
2017-Nov-11 05:00N 35°16' E 139°46'612.6
2017-Nov-11 04:30N 35°22' E 139°42'612.2
2017-Nov-11 04:00N 35°27' E 139°47'7 1.0
2017-Nov-10 20:55N 35°29' E 139°55'0 0.1
2017-Nov-10 20:27N 35°29' E 139°56'0 0.0
2017-Nov-10 19:58N 35°29' E 139°56'0 0.0
2017-Nov-10 19:25N 35°29' E 139°56'0 0.0
2017-Nov-10 18:55N 35°29' E 139°56'0 0.0
2017-Nov-10 18:29N 35°29' E 139°56'0 0.0
2017-Nov-10 17:57N 35°29' E 139°56'0 0.0
2017-Nov-10 17:29N 35°29' E 139°56'0 0.0
2017-Nov-10 17:00N 35°29' E 139°56'0 0.0
2017-Nov-10 16:03N 35°29' E 139°56'0 0.0
2017-Nov-10 15:54N 35°29' E 139°56'0 0.0
2017-Nov-10 15:29N 35°29' E 139°56'0 0.0
2017-Nov-10 14:48N 35°29' E 139°56'0 0.0
2017-Nov-10 12:48N 35°29' E 139°56'0 0.0
2017-Nov-10 12:30N 35°29' E 139°56'0 0.0
2017-Nov-10 11:54N 35°29' E 139°56'0 0.1
2017-Nov-10 11:21N 35°29' E 139°55'1 0.2
2017-Nov-10 07:54N 35°29' E 139°55'512.5
2017-Nov-10 07:30N 35°26' E 139°49'612.8
2017-Nov-10 07:00N 35°21' E 139°45'611.9
2017-Nov-10 06:30N 35°15' E 139°47'612.7
2017-Nov-10 06:00N 35°09' E 139°45'612.5
2017-Nov-10 05:30N 35°04' E 139°42'612.1
2017-Nov-10 05:00N 35°00' E 139°36'612.3
2017-Nov-10 04:30N 34°56' E 139°30'  
2017-Nov-08 00:04N 34°37' E 134°54'115.7
2017-Nov-07 23:59N 34°37' E 134°56'714.7
2017-Nov-07 23:30N 34°36' E 135°04'612.4
2017-Nov-07 23:00N 34°30' E 135°04'1413.5
2017-Nov-07 21:58N 34°16' E 134°59'511.6
2017-Nov-07 21:30N 34°11' E 134°59'712.7
2017-Nov-07 20:55N 34°04' E 134°60'  
Track history (hours):
 
Tides and Currents Weather Stations Pressure Air Temp Water Temp Dewpoint Dewpoint Depression Visibility Wind Speed Wind Dir Waves Ship Positions

Kousin Maru No.15

Last reported at 2017-Nov-17 11:06 UTC. Time now 2017-Nov-18 10:31 UTC.
Position N 34°07' E 134°59'.

Length 63 m; draft 4.5 m.

Type: Tanker. MMSI: 431501727.

Date/timePositionNaut miles runAvg speedWind from/ knotsBaromVisibWave heightAir tempDewpointWater temp
2017-Nov-17 11:06N 34°07' E 134°59'112.9
2017-Nov-17 11:00N 34°09' E 134°59'1812.5
2017-Nov-17 09:34N 34°27' E 135°00'212.6
2017-Nov-17 09:26N 34°28' E 135°01'612.3
2017-Nov-17 08:58N 34°34' E 135°02'16 0.9
2017-Nov-16 15:47N 34°41' E 134°46'810.6
2017-Nov-16 15:03N 34°37' E 134°54'1 9.9
2017-Nov-16 14:59N 34°37' E 134°55'510.8
2017-Nov-16 14:30N 34°37' E 135°01'5 9.5
2017-Nov-16 13:58N 34°34' E 135°05'612.4
2017-Nov-16 13:30N 34°28' E 135°03'612.3
2017-Nov-16 13:00N 34°22' E 135°01'711.9
2017-Nov-16 12:24N 34°15' E 134°59'512.6
2017-Nov-16 12:00N 34°10' E 134°60'211 9.2
2017-Nov-15 13:07N 34°51' E 139°10'211.3
2017-Nov-15 12:59N 34°52' E 139°11'1410.6
2017-Nov-15 11:37N 35°00' E 139°26'511.0
2017-Nov-15 11:10N 35°02' E 139°32'211.3
2017-Nov-15 11:00N 35°03' E 139°34'611.7
2017-Nov-15 10:30N 35°07' E 139°40'612.6
2017-Nov-15 10:00N 35°11' E 139°45'612.2
2017-Nov-15 09:31N 35°17' E 139°45'612.6
2017-Nov-15 09:00N 35°23' E 139°42'713.0
2017-Nov-15 08:30N 35°28' E 139°48'6 0.3
2017-Nov-14 14:15N 35°29' E 139°56'2 8.3
2017-Nov-14 13:59N 35°29' E 139°53'613.2
2017-Nov-14 13:30N 35°25' E 139°47'713.2
2017-Nov-14 13:01N 35°18' E 139°44'612.1
2017-Nov-14 12:30N 35°13' E 139°47'612.5
2017-Nov-14 12:00N 35°07' E 139°44'612.4
2017-Nov-14 11:30N 35°02' E 139°39'713.3
2017-Nov-14 11:00N 34°59' E 139°32'  
2017-Nov-11 08:13N 34°52' E 139°11'1712.1
2017-Nov-11 06:48N 35°02' E 139°29'412.0
2017-Nov-11 06:30N 35°03' E 139°33'612.2
2017-Nov-11 06:00N 35°06' E 139°39'612.2
2017-Nov-11 05:30N 35°10' E 139°44'611.9
2017-Nov-11 05:00N 35°16' E 139°46'612.6
2017-Nov-11 04:30N 35°22' E 139°42'612.2
2017-Nov-11 04:00N 35°27' E 139°47'7 1.0
2017-Nov-10 20:55N 35°29' E 139°55'0 0.1
2017-Nov-10 20:27N 35°29' E 139°56'0 0.0
2017-Nov-10 19:58N 35°29' E 139°56'0 0.0
2017-Nov-10 19:25N 35°29' E 139°56'0 0.0
2017-Nov-10 18:55N 35°29' E 139°56'0 0.0
2017-Nov-10 18:29N 35°29' E 139°56'0 0.0
2017-Nov-10 17:57N 35°29' E 139°56'0 0.0
2017-Nov-10 17:29N 35°29' E 139°56'0 0.0
2017-Nov-10 17:00N 35°29' E 139°56'0 0.0
2017-Nov-10 16:03N 35°29' E 139°56'0 0.0
2017-Nov-10 15:54N 35°29' E 139°56'0 0.0
2017-Nov-10 15:29N 35°29' E 139°56'0 0.0
2017-Nov-10 14:48N 35°29' E 139°56'0 0.0
2017-Nov-10 12:48N 35°29' E 139°56'0 0.0
2017-Nov-10 12:30N 35°29' E 139°56'0 0.0
2017-Nov-10 11:54N 35°29' E 139°56'0 0.1
2017-Nov-10 11:21N 35°29' E 139°55'1 0.2
2017-Nov-10 07:54N 35°29' E 139°55'512.5
2017-Nov-10 07:30N 35°26' E 139°49'612.8
2017-Nov-10 07:00N 35°21' E 139°45'611.9
2017-Nov-10 06:30N 35°15' E 139°47'612.7
2017-Nov-10 06:00N 35°09' E 139°45'612.5
2017-Nov-10 05:30N 35°04' E 139°42'612.1
2017-Nov-10 05:00N 35°00' E 139°36'612.3
2017-Nov-10 04:30N 34°56' E 139°30'  
2017-Nov-08 00:04N 34°37' E 134°54'115.7
2017-Nov-07 23:59N 34°37' E 134°56'714.7
2017-Nov-07 23:30N 34°36' E 135°04'612.4
2017-Nov-07 23:00N 34°30' E 135°04'1413.5
2017-Nov-07 21:58N 34°16' E 134°59'511.6
2017-Nov-07 21:30N 34°11' E 134°59'712.7
2017-Nov-07 20:55N 34°04' E 134°60'  

Dump ship's entire track history